Time;durP1;ratioP1;P1;durP2;ratioP2;P2;SDS_P1;SDS_P2;PMS_P1;PMS_P2;Temp;Humidity;BMP_temperature;BMP_pressure;BME280_temperature;BME280_humidity;BME280_pressure;Samples;Min_cycle;Max_cycle;Signal;HPM_P1;HPM_P2
2023/03/07 00:00:01;;;;;;;25.45;12.27;;;3.70;99.90;;;;;;5051170;28;20408;-68
2023/03/07 00:02:26;;;;;;;23.38;12.98;;;3.80;99.90;;;;;;5050929;28;20048;-68
2023/03/07 00:04:52;;;;;;;23.63;12.43;;;3.80;99.90;;;;;;5054230;28;20606;-68
2023/03/07 00:07:17;;;;;;;21.70;12.50;;;3.80;99.90;;;;;;5054854;28;20044;-68
2023/03/07 00:09:43;;;;;;;22.90;11.60;;;3.90;99.90;;;;;;5053974;28;20033;-68
2023/03/07 00:12:10;;;;;;;21.90;10.98;;;3.80;99.90;;;;;;5054409;28;20503;-68
2023/03/07 00:14:36;;;;;;;24.58;13.02;;;3.90;99.90;;;;;;5054158;28;20099;-68
2023/03/07 00:17:01;;;;;;;22.90;11.10;;;3.90;99.90;;;;;;5046316;28;20044;-68
2023/03/07 00:19:27;;;;;;;18.83;10.13;;;4.00;99.90;;;;;;5036597;28;20045;-68
2023/03/07 00:21:52;;;;;;;14.35;7.80;;;4.00;99.90;;;;;;5054448;28;20064;-68
2023/03/07 00:24:18;;;;;;;15.38;7.75;;;4.00;99.90;;;;;;5036185;28;20041;-68
2023/03/07 00:26:43;;;;;;;13.95;7.65;;;4.00;99.90;;;;;;5054419;28;20048;-69
2023/03/07 00:29:10;;;;;;;12.88;6.43;;;4.00;99.90;;;;;;5054365;28;20407;-69
2023/03/07 00:31:36;;;;;;;13.43;5.65;;;4.00;99.90;;;;;;5054081;28;20057;-68
2023/03/07 00:34:02;;;;;;;10.02;5.50;;;4.00;99.90;;;;;;5067385;28;20132;-68
2023/03/07 00:36:27;;;;;;;11.75;4.53;;;4.00;99.90;;;;;;5047379;28;20047;-68
2023/03/07 00:38:53;;;;;;;9.88;4.00;;;4.00;99.90;;;;;;5054129;28;20037;-68
2023/03/07 00:41:22;;;;;;;7.13;3.88;;;3.90;99.90;;;;;;5053870;28;20041;-68
2023/03/07 00:43:47;;;;;;;8.20;4.57;;;3.80;99.90;;;;;;5053746;28;20148;-68
2023/03/07 00:46:15;;;;;;;11.27;4.20;;;3.80;99.90;;;;;;5054054;28;20400;-68
2023/03/07 00:48:41;;;;;;;12.80;5.22;;;3.80;99.90;;;;;;5035984;28;20063;-68
2023/03/07 00:51:09;;;;;;;8.68;4.25;;;3.70;99.90;;;;;;5053728;28;20504;-68
2023/03/07 00:53:35;;;;;;;9.77;4.68;;;3.80;99.90;;;;;;5053551;28;20503;-68
2023/03/07 00:56:04;;;;;;;12.95;4.18;;;3.70;99.90;;;;;;5053872;28;20040;-68
2023/03/07 00:58:32;;;;;;;8.70;4.75;;;3.60;99.90;;;;;;5053837;28;20408;-68
2023/03/07 01:00:58;;;;;;;11.13;4.43;;;3.80;99.90;;;;;;5053325;28;20056;-68
2023/03/07 01:03:25;;;;;;;14.77;3.83;;;3.60;99.90;;;;;;5053412;28;20040;-68
2023/03/07 01:05:51;;;;;;;5.75;3.33;;;3.70;99.90;;;;;;5053760;28;20037;-69
2023/03/07 01:08:17;;;;;;;9.23;3.05;;;3.90;99.90;;;;;;5053682;28;20040;-69
2023/03/07 01:10:44;;;;;;;8.00;2.63;;;3.80;99.90;;;;;;5035602;28;20124;-68
2023/03/07 01:13:11;;;;;;;8.23;2.17;;;3.80;99.90;;;;;;5035210;28;20440;-68
2023/03/07 01:15:36;;;;;;;7.25;2.35;;;3.80;99.90;;;;;;5052339;28;20033;-68
2023/03/07 01:18:06;;;;;;;6.15;2.30;;;3.90;99.90;;;;;;5035584;28;20071;-68
2023/03/07 01:20:34;;;;;;;5.32;2.13;;;3.70;99.90;;;;;;5053215;28;20522;-68
2023/03/07 01:23:00;;;;;;;13.63;4.03;;;3.90;99.90;;;;;;5053057;28;20084;-69
2023/03/07 01:25:27;;;;;;;11.30;2.22;;;3.90;99.90;;;;;;5053204;28;20094;-68
2023/03/07 01:27:56;;;;;;;7.90;2.50;;;3.90;99.90;;;;;;5035536;28;20037;-68
2023/03/07 01:30:23;;;;;;;8.75;2.58;;;3.90;99.90;;;;;;5053359;28;20091;-69
2023/03/07 01:32:57;;;;;;;6.65;1.85;;;3.80;99.90;;;;;;5052784;28;20037;-68
2023/03/07 01:35:23;;;;;;;7.55;1.65;;;3.80;99.90;;;;;;5035152;28;20052;-68
2023/03/07 01:37:50;;;;;;;6.35;2.03;;;3.90;99.90;;;;;;5053027;28;20041;-69
2023/03/07 01:40:16;;;;;;;7.10;2.10;;;3.80;99.90;;;;;;5035236;28;20037;-68
2023/03/07 01:42:42;;;;;;;13.23;2.38;;;3.90;99.90;;;;;;5052632;28;20056;-68
2023/03/07 01:45:33;;;;;;;8.43;1.80;;;3.90;99.90;;;;;;5034957;28;20543;-68
2023/03/07 01:47:59;;;;;;;6.03;1.85;;;3.90;99.90;;;;;;5052720;28;20042;-68
2023/03/07 01:50:26;;;;;;;8.23;2.03;;;4.00;99.90;;;;;;5052840;28;20175;-68
2023/03/07 01:52:57;;;;;;;4.13;1.52;;;4.00;99.90;;;;;;5018308;28;20048;-69
2023/03/07 01:55:28;;;;;;;10.73;1.60;;;3.90;99.90;;;;;;5034813;28;20041;-69
2023/03/07 01:57:55;;;;;;;10.32;1.95;;;3.90;99.90;;;;;;5035102;28;20112;-68
2023/03/07 02:00:27;;;;;;;18.63;2.30;;;3.90;99.90;;;;;;5034684;28;20523;-69
2023/03/07 02:03:11;;;;;;;10.65;3.25;;;3.90;99.90;;;;;;5034206;28;20122;-69
2023/03/07 02:05:52;;;;;;;12.80;1.90;;;3.80;99.90;;;;;;5052402;28;20068;-69
2023/03/07 02:08:20;;;;;;;14.95;2.42;;;3.90;99.90;;;;;;5052627;28;20153;-68
2023/03/07 02:10:46;;;;;;;7.72;2.03;;;3.80;99.90;;;;;;5052233;28;20377;-69
2023/03/07 02:13:12;;;;;;;14.23;2.63;;;3.80;99.90;;;;;;5052145;28;20041;-68
2023/03/07 02:15:38;;;;;;;11.98;2.55;;;3.80;99.90;;;;;;5052317;28;20124;-68
2023/03/07 02:18:04;;;;;;;9.98;2.25;;;3.70;99.90;;;;;;5034390;28;20045;-69
2023/03/07 02:20:44;;;;;;;13.77;2.35;;;3.70;99.90;;;;;;5052387;28;20041;-69
2023/03/07 02:23:26;;;;;;;10.63;2.03;;;3.60;99.90;;;;;;5051842;28;20076;-68
2023/03/07 02:26:00;;;;;;;12.02;1.77;;;3.70;99.90;;;;;;5034336;28;20404;-68
2023/03/07 02:28:27;;;;;;;8.18;1.73;;;3.70;99.90;;;;;;5052074;28;20065;-68
2023/03/07 02:31:01;;;;;;;10.27;2.55;;;3.60;99.90;;;;;;5052032;28;20041;-69
2023/03/07 02:33:27;;;;;;;5.10;2.28;;;3.60;99.90;;;;;;5051737;28;20132;-68
2023/03/07 02:36:02;;;;;;;9.50;2.63;;;3.40;99.90;;;;;;5034360;28;20080;-68
2023/03/07 02:38:31;;;;;;;10.85;2.38;;;3.60;99.90;;;;;;5052025;28;20068;-68
2023/03/07 02:40:57;;;;;;;13.15;2.03;;;3.50;99.90;;;;;;5051630;28;20587;-68
2023/03/07 02:43:23;;;;;;;11.85;2.75;;;3.50;99.90;;;;;;5051699;28;20124;-68
2023/03/07 02:45:49;;;;;;;14.55;2.60;;;3.40;99.90;;;;;;5051981;28;20552;-68
2023/03/07 02:48:15;;;;;;;12.05;2.92;;;3.40;99.90;;;;;;5051791;28;20044;-68
2023/03/07 02:50:40;;;;;;;10.68;2.10;;;3.40;99.90;;;;;;5051746;28;20048;-69
2023/03/07 02:53:06;;;;;;;7.30;1.90;;;3.40;99.90;;;;;;5051409;28;20043;-68
2023/03/07 02:55:32;;;;;;;15.57;4.28;;;3.40;99.90;;;;;;5051536;28;20041;-68
2023/03/07 02:57:58;;;;;;;11.70;1.95;;;3.30;99.90;;;;;;5033797;28;20120;-68
2023/03/07 03:00:24;;;;;;;8.27;1.90;;;3.30;99.90;;;;;;5052009;28;20472;-68
2023/03/07 03:02:50;;;;;;;16.02;2.28;;;3.40;99.90;;;;;;5051449;28;20091;-68
2023/03/07 03:05:15;;;;;;;7.50;1.42;;;3.50;99.90;;;;;;5051544;28;20069;-69
2023/03/07 03:07:41;;;;;;;6.20;1.45;;;3.40;99.90;;;;;;5051642;28;20108;-69
2023/03/07 03:10:07;;;;;;;6.80;1.90;;;3.30;99.90;;;;;;5051453;28;20565;-68
2023/03/07 03:12:32;;;;;;;10.95;3.33;;;3.30;99.90;;;;;;5051640;28;20047;-68
2023/03/07 03:14:58;;;;;;;9.50;2.45;;;3.30;99.90;;;;;;5051437;28;20032;-68
2023/03/07 03:17:23;;;;;;;13.32;1.70;;;3.30;99.90;;;;;;5051626;28;20132;-68
2023/03/07 03:19:49;;;;;;;4.60;1.92;;;3.40;99.90;;;;;;5051499;28;20055;-68
2023/03/07 03:22:14;;;;;;;11.90;2.00;;;3.40;99.90;;;;;;5033402;28;20099;-68
2023/03/07 03:24:41;;;;;;;7.28;1.83;;;3.30;99.90;;;;;;5051005;28;20098;-68
2023/03/07 03:27:07;;;;;;;8.35;1.63;;;3.30;99.90;;;;;;5051370;28;20446;-68
2023/03/07 03:29:33;;;;;;;15.20;2.70;;;3.30;99.90;;;;;;5051539;28;20034;-68
2023/03/07 03:31:59;;;;;;;9.30;1.60;;;3.20;99.90;;;;;;5033296;28;20048;-68
2023/03/07 03:34:24;;;;;;;8.73;2.35;;;3.20;99.90;;;;;;5051185;28;20076;-68
2023/03/07 03:36:51;;;;;;;9.02;1.50;;;3.10;99.90;;;;;;5051361;28;20052;-69
2023/03/07 03:39:17;;;;;;;12.15;1.88;;;3.30;99.90;;;;;;5054048;28;20073;-68
2023/03/07 03:41:42;;;;;;;6.28;1.77;;;3.10;99.90;;;;;;5055039;28;20076;-68
2023/03/07 03:44:08;;;;;;;10.38;1.40;;;3.20;99.90;;;;;;5036997;28;20056;-68
2023/03/07 03:46:34;;;;;;;8.65;1.63;;;3.10;99.90;;;;;;5037280;28;20511;-69
2023/03/07 03:49:00;;;;;;;14.32;1.75;;;3.20;99.90;;;;;;5055210;28;20110;-69
2023/03/07 03:51:26;;;;;;;8.13;2.45;;;3.20;99.90;;;;;;5054997;28;20045;-69
2023/03/07 03:53:51;;;;;;;8.15;1.52;;;3.10;99.90;;;;;;5036903;28;20040;-68
2023/03/07 03:56:19;;;;;;;9.82;1.52;;;3.20;99.90;;;;;;5055171;28;20075;-68
2023/03/07 03:58:54;;;;;;;9.00;1.50;;;3.10;99.90;;;;;;5055073;28;20087;-69
2023/03/07 04:01:21;;;;;;;9.00;1.55;;;3.10;99.90;;;;;;5054758;28;20037;-68
2023/03/07 04:03:49;;;;;;;9.30;1.70;;;3.10;99.90;;;;;;5054560;28;20033;-69
2023/03/07 04:06:17;;;;;;;12.30;2.03;;;3.10;99.90;;;;;;5054761;28;20033;-68
2023/03/07 04:08:45;;;;;;;6.18;1.42;;;3.10;99.90;;;;;;5054602;28;20048;-68
2023/03/07 04:11:11;;;;;;;9.10;1.50;;;3.20;99.90;;;;;;5054777;28;20119;-69
2023/03/07 04:13:36;;;;;;;7.32;1.30;;;3.10;99.90;;;;;;5054526;28;20732;-69
2023/03/07 04:16:02;;;;;;;11.43;2.50;;;3.20;99.90;;;;;;5054677;28;20047;-68
2023/03/07 04:18:28;;;;;;;9.35;1.75;;;3.10;99.90;;;;;;5054713;28;20047;-69
2023/03/07 04:20:54;;;;;;;5.97;1.33;;;3.20;99.90;;;;;;5054352;28;20037;-68
2023/03/07 04:23:21;;;;;;;11.00;1.98;;;3.10;99.90;;;;;;5054042;28;20041;-69
2023/03/07 04:25:58;;;;;;;10.77;1.98;;;3.10;99.90;;;;;;5054590;28;20048;-69
2023/03/07 04:28:26;;;;;;;11.75;1.58;;;3.10;99.90;;;;;;5054525;28;20068;-69
2023/03/07 04:30:52;;;;;;;11.07;1.75;;;3.00;99.90;;;;;;5036317;28;20052;-68
2023/03/07 04:33:18;;;;;;;13.65;2.35;;;3.10;99.90;;;;;;5095564;22;20454;-69
2023/03/07 04:35:47;;;;;;;3.95;1.85;;;3.00;99.90;;;;;;5074344;28;20041;-68
2023/03/07 04:38:14;;;;;;;8.70;1.58;;;3.00;99.90;;;;;;5074010;28;20056;-68
2023/03/07 04:40:39;;;;;;;5.63;1.80;;;3.10;99.90;;;;;;5073845;28;20047;-68
2023/03/07 04:43:05;;;;;;;10.60;1.10;;;3.00;99.90;;;;;;5073702;28;20119;-69
2023/03/07 04:45:34;;;;;;;12.05;1.65;;;3.10;99.90;;;;;;5073997;28;20037;-69
2023/03/07 04:48:00;;;;;;;10.23;2.00;;;3.10;99.90;;;;;;5073829;28;20557;-69
2023/03/07 04:50:26;;;;;;;6.10;1.55;;;3.10;99.90;;;;;;5074340;28;20033;-69
2023/03/07 04:52:51;;;;;;;9.32;1.88;;;3.00;99.90;;;;;;5074168;28;20464;-69
2023/03/07 04:55:17;;;;;;;7.28;1.45;;;3.10;99.90;;;;;;5074006;28;20120;-68
2023/03/07 04:57:42;;;;;;;7.72;1.98;;;3.00;99.90;;;;;;5073645;28;20032;-68
2023/03/07 05:00:09;;;;;;;9.52;1.65;;;3.00;99.90;;;;;;5073908;28;20041;-69
2023/03/07 05:02:35;;;;;;;7.80;1.50;;;3.00;99.90;;;;;;5073499;28;20047;-68
2023/03/07 05:05:01;;;;;;;8.10;1.23;;;2.90;99.90;;;;;;5073643;28;20090;-68
2023/03/07 05:07:28;;;;;;;8.90;1.50;;;3.00;99.90;;;;;;5056024;28;20412;-68
2023/03/07 05:09:54;;;;;;;12.52;1.70;;;2.90;99.90;;;;;;5073751;28;20041;-68
2023/03/07 05:12:20;;;;;;;9.55;1.70;;;3.00;99.90;;;;;;5073486;28;20044;-68
2023/03/07 05:14:45;;;;;;;11.18;1.83;;;3.10;99.90;;;;;;5073140;28;20051;-68
2023/03/07 05:17:11;;;;;;;9.77;1.70;;;2.90;99.90;;;;;;5073334;28;20119;-68
2023/03/07 05:19:36;;;;;;;10.13;2.08;;;3.00;99.90;;;;;;5073592;28;20444;-69
2023/03/07 05:22:02;;;;;;;9.35;1.30;;;2.90;99.90;;;;;;5073295;28;20044;-68
2023/03/07 05:24:27;;;;;;;6.72;1.58;;;3.10;99.90;;;;;;5055134;28;20037;-69
2023/03/07 05:26:53;;;;;;;9.25;1.65;;;3.00;99.90;;;;;;5073272;28;20047;-69
2023/03/07 05:29:19;;;;;;;11.43;1.65;;;3.20;99.90;;;;;;5073433;28;20063;-69
2023/03/07 05:31:44;;;;;;;11.02;2.20;;;3.20;99.90;;;;;;5072805;28;20040;-69
2023/03/07 05:34:10;;;;;;;8.57;1.25;;;3.20;99.90;;;;;;5073045;28;20415;-69
2023/03/07 05:36:36;;;;;;;12.35;2.10;;;3.10;99.90;;;;;;5055131;28;20655;-68
2023/03/07 05:39:01;;;;;;;14.15;1.70;;;3.20;99.90;;;;;;5072935;28;20083;-68
2023/03/07 05:41:27;;;;;;;9.60;1.75;;;3.30;99.90;;;;;;5072847;28;20039;-69
2023/03/07 05:43:54;;;;;;;11.75;1.90;;;3.10;99.90;;;;;;5072616;28;20037;-69
2023/03/07 05:46:20;;;;;;;6.70;1.33;;;3.30;99.90;;;;;;5072749;28;20052;-68
2023/03/07 05:48:45;;;;;;;5.13;1.50;;;3.30;99.90;;;;;;5073003;28;20089;-69
2023/03/07 05:51:11;;;;;;;7.10;2.05;;;3.20;99.90;;;;;;5072639;28;20554;-69
2023/03/07 05:53:37;;;;;;;6.90;2.33;;;3.30;99.90;;;;;;5073042;28;20042;-68
2023/03/07 05:56:02;;;;;;;12.73;2.17;;;3.40;99.90;;;;;;5055006;28;20111;-68
2023/03/07 05:58:28;;;;;;;8.02;1.42;;;3.40;99.90;;;;;;5072771;28;20036;-68
2023/03/07 06:00:53;;;;;;;10.90;3.25;;;3.20;99.90;;;;;;5054570;28;20106;-69
2023/03/07 06:03:19;;;;;;;7.47;1.23;;;3.30;99.90;;;;;;5072046;28;20040;-68
2023/03/07 06:05:48;;;;;;;7.35;1.38;;;3.30;99.90;;;;;;5072563;28;20032;-69
2023/03/07 06:08:14;;;;;;;6.32;1.65;;;3.20;99.90;;;;;;5054743;28;20090;-69
2023/03/07 06:10:41;;;;;;;7.70;1.92;;;3.20;99.90;;;;;;5072703;28;20484;-68
2023/03/07 06:13:15;;;;;;;7.68;1.40;;;3.30;99.90;;;;;;5072037;28;20109;-68
2023/03/07 06:15:40;;;;;;;11.85;2.95;;;3.20;99.90;;;;;;5072254;28;20036;-68
2023/03/07 06:18:06;;;;;;;6.95;1.58;;;3.30;99.90;;;;;;5072163;28;20128;-68
2023/03/07 06:20:31;;;;;;;4.00;1.20;;;3.30;99.90;;;;;;5072258;28;20044;-68
2023/03/07 06:22:57;;;;;;;9.32;1.95;;;3.20;99.90;;;;;;5071820;28;20050;-68
2023/03/07 06:25:22;;;;;;;8.63;1.40;;;3.20;99.90;;;;;;5072051;28;20112;-68
2023/03/07 06:27:48;;;;;;;8.73;1.38;;;3.30;99.90;;;;;;5072214;28;20479;-69
2023/03/07 06:30:14;;;;;;;4.78;1.20;;;3.30;99.90;;;;;;5072179;28;20060;-69
2023/03/07 06:32:39;;;;;;;11.02;1.42;;;3.40;99.90;;;;;;5071852;28;20396;-68
2023/03/07 06:35:05;;;;;;;6.10;1.67;;;3.30;99.90;;;;;;5071778;28;20055;-69
2023/03/07 06:37:31;;;;;;;11.10;3.20;;;3.30;99.90;;;;;;5072077;28;20043;-68
2023/03/07 06:39:56;;;;;;;5.38;1.35;;;3.40;99.90;;;;;;5072030;28;20037;-69
2023/03/07 06:42:22;;;;;;;5.57;1.27;;;3.40;99.90;;;;;;5071709;28;20495;-68
2023/03/07 06:44:48;;;;;;;4.28;1.73;;;3.30;99.90;;;;;;5071491;28;20102;-68
2023/03/07 06:47:13;;;;;;;5.13;0.90;;;3.30;99.90;;;;;;5071993;28;20037;-68
2023/03/07 06:49:39;;;;;;;4.78;1.63;;;3.30;99.90;;;;;;5071890;28;20086;-68
2023/03/07 06:52:04;;;;;;;6.03;0.85;;;3.30;99.90;;;;;;5070899;28;20032;-68
2023/03/07 06:54:30;;;;;;;8.93;1.58;;;3.40;99.90;;;;;;5071136;28;20086;-68
2023/03/07 06:56:55;;;;;;;5.80;1.02;;;3.40;99.90;;;;;;5071730;28;20127;-68
2023/03/07 06:59:21;;;;;;;9.82;1.30;;;3.30;99.90;;;;;;5071616;28;20052;-68
2023/03/07 07:01:47;;;;;;;11.65;1.48;;;3.30;99.90;;;;;;5071496;28;20388;-69
2023/03/07 07:04:13;;;;;;;6.82;1.20;;;3.30;99.90;;;;;;5071399;28;20041;-68
2023/03/07 07:06:39;;;;;;;7.00;1.40;;;3.40;99.90;;;;;;5071804;28;20404;-68
2023/03/07 07:09:04;;;;;;;5.88;1.33;;;3.30;99.90;;;;;;5071773;28;20032;-68
2023/03/07 07:11:30;;;;;;;21.15;2.20;;;3.40;99.90;;;;;;5053878;28;20045;-68
2023/03/07 07:13:56;;;;;;;4.05;0.95;;;3.40;99.90;;;;;;5073818;28;20564;-69
2023/03/07 07:16:22;;;;;;;4.25;1.15;;;3.30;99.90;;;;;;5058035;28;20072;-69
2023/03/07 07:18:50;;;;;;;10.35;0.95;;;3.40;99.90;;;;;;5076125;28;20123;-72
2023/03/07 07:21:16;;;;;;;7.55;1.10;;;3.40;99.90;;;;;;5058234;28;20047;-73
2023/03/07 07:23:42;;;;;;;3.42;1.00;;;3.50;99.90;;;;;;5057599;28;20037;-73
2023/03/07 07:26:07;;;;;;;5.15;1.02;;;3.50;99.90;;;;;;5075521;28;20063;-73
2023/03/07 07:28:33;;;;;;;7.72;1.30;;;3.40;99.90;;;;;;5075434;28;20110;-73
2023/03/07 07:30:59;;;;;;;10.50;3.00;;;3.50;99.90;;;;;;5057463;28;20032;-73
2023/03/07 07:33:24;;;;;;;3.47;1.02;;;3.50;99.90;;;;;;5057080;28;20045;-74
2023/03/07 07:35:50;;;;;;;3.38;1.30;;;3.40;99.90;;;;;;5075335;28;20094;-73
2023/03/07 07:38:15;;;;;;;5.93;1.02;;;3.50;99.90;;;;;;5075305;28;20549;-73
2023/03/07 07:40:41;;;;;;;3.30;0.90;;;3.50;99.90;;;;;;5075238;28;20538;-73
2023/03/07 07:43:10;;;;;;;4.65;1.20;;;3.50;99.90;;;;;;5074674;28;20040;-73
2023/03/07 07:45:36;;;;;;;3.45;1.55;;;3.50;99.90;;;;;;5075239;28;20123;-73
2023/03/07 07:48:02;;;;;;;9.00;1.08;;;3.60;99.90;;;;;;5075122;28;20072;-73
2023/03/07 07:50:27;;;;;;;2.60;0.68;;;3.60;99.90;;;;;;5074971;28;20044;-73
2023/03/07 07:52:53;;;;;;;5.63;0.93;;;3.50;99.90;;;;;;5057019;28;20052;-73
2023/03/07 07:55:19;;;;;;;5.82;1.40;;;3.60;99.90;;;;;;5057011;28;20309;-73
2023/03/07 07:57:44;;;;;;;5.78;0.90;;;3.50;99.90;;;;;;5075121;28;20047;-73
2023/03/07 08:00:12;;;;;;;5.85;0.95;;;3.60;99.90;;;;;;5057326;28;20392;-73
2023/03/07 08:02:38;;;;;;;4.20;0.90;;;3.50;99.90;;;;;;5074639;28;20048;-74
2023/03/07 08:05:06;;;;;;;6.78;1.27;;;3.60;99.90;;;;;;5074558;28;20499;-73
2023/03/07 08:07:32;;;;;;;6.40;1.48;;;3.50;99.90;;;;;;5074947;28;20043;-72
2023/03/07 08:09:57;;;;;;;7.28;1.35;;;3.70;99.90;;;;;;5056391;28;20400;-73
2023/03/07 08:12:23;;;;;;;4.43;1.02;;;3.80;99.90;;;;;;5073325;28;20506;-74
2023/03/07 08:14:48;;;;;;;4.18;1.00;;;3.80;99.90;;;;;;5034679;28;20032;-74
2023/03/07 08:17:14;;;;;;;9.13;1.08;;;4.00;99.90;;;;;;5070917;28;20431;-73
2023/03/07 08:19:39;;;;;;;6.47;1.20;;;4.10;99.90;;;;;;5074925;28;20487;-73
2023/03/07 08:22:05;;;;;;;6.53;1.40;;;4.10;99.90;;;;;;5056684;28;20052;-73
2023/03/07 08:24:34;;;;;;;6.55;1.50;;;4.20;99.90;;;;;;5073641;28;20087;-73
2023/03/07 08:27:00;;;;;;;1.92;1.05;;;4.30;99.90;;;;;;5056405;28;20492;-73
2023/03/07 08:29:26;;;;;;;1.25;0.60;;;4.30;99.90;;;;;;5039712;28;20040;-73
2023/03/07 08:31:53;;;;;;;3.88;1.02;;;4.40;99.90;;;;;;5074145;28;20040;-73
2023/03/07 08:34:19;;;;;;;2.13;0.85;;;4.30;99.90;;;;;;5056118;28;20032;-73
2023/03/07 08:36:45;;;;;;;3.40;0.93;;;4.40;99.90;;;;;;5056293;28;20603;-74
2023/03/07 08:39:11;;;;;;;5.25;1.50;;;4.40;99.90;;;;;;5056467;28;20041;-73
2023/03/07 08:41:37;;;;;;;5.63;2.17;;;4.40;99.90;;;;;;5056124;28;20040;-73
2023/03/07 08:44:02;;;;;;;7.00;1.00;;;4.40;99.90;;;;;;5055985;28;20033;-73
2023/03/07 08:46:28;;;;;;;7.38;1.38;;;4.40;99.90;;;;;;5074078;28;20119;-73
2023/03/07 08:48:53;;;;;;;6.30;1.13;;;4.40;99.90;;;;;;5039447;28;20041;-73
2023/03/07 08:51:19;;;;;;;4.40;1.23;;;4.40;99.90;;;;;;5056166;28;20044;-74
2023/03/07 08:53:45;;;;;;;6.20;1.02;;;4.30;99.90;;;;;;5073536;28;20090;-73
2023/03/07 08:56:14;;;;;;;9.75;2.00;;;4.30;99.90;;;;;;5055959;28;20036;-73
2023/03/07 08:58:39;;;;;;;5.72;1.88;;;4.00;99.90;;;;;;5073931;28;20036;-74
2023/03/07 09:01:07;;;;;;;5.65;1.10;;;4.00;99.90;;;;;;5073814;28;20161;-74
2023/03/07 09:03:33;;;;;;;3.95;1.15;;;3.80;99.90;;;;;;5073377;28;20037;-73
2023/03/07 09:05:59;;;;;;;3.60;1.02;;;3.80;99.90;;;;;;5073663;28;20086;-73
2023/03/07 09:08:25;;;;;;;1.65;0.85;;;3.90;99.90;;;;;;5073523;28;20032;-73
2023/03/07 09:10:51;;;;;;;5.82;1.63;;;3.90;99.90;;;;;;5073781;28;20179;-73
2023/03/07 09:13:17;;;;;;;7.72;1.25;;;3.80;99.90;;;;;;5073168;28;20048;-73
2023/03/07 09:15:43;;;;;;;8.23;1.17;;;3.90;99.90;;;;;;5039131;28;20044;-73
2023/03/07 09:18:10;;;;;;;5.82;1.20;;;3.90;99.90;;;;;;5073506;28;20524;-73
2023/03/07 09:20:37;;;;;;;6.50;1.17;;;3.90;99.90;;;;;;5073435;28;20043;-73
2023/03/07 09:23:03;;;;;;;4.90;1.30;;;4.00;99.90;;;;;;5072887;28;20079;-74
2023/03/07 09:25:29;;;;;;;5.13;1.17;;;4.00;99.90;;;;;;5055346;28;20068;-73
2023/03/07 09:27:55;;;;;;;5.13;0.93;;;4.00;99.90;;;;;;5055273;28;20075;-73
2023/03/07 09:30:21;;;;;;;7.75;1.98;;;3.90;99.90;;;;;;5073247;28;20043;-73
2023/03/07 09:32:48;;;;;;;5.85;1.15;;;3.80;99.90;;;;;;5072997;28;20033;-73
2023/03/07 09:35:14;;;;;;;8.90;1.35;;;3.90;99.90;;;;;;5072391;28;20499;-73
2023/03/07 09:37:39;;;;;;;4.38;1.65;;;4.00;99.90;;;;;;5072538;28;20051;-73
2023/03/07 09:40:06;;;;;;;3.85;1.50;;;3.90;99.90;;;;;;5073020;28;20101;-73
2023/03/07 09:42:39;;;;;;;3.47;0.90;;;4.00;99.90;;;;;;5072934;28;20040;-74
2023/03/07 09:45:13;;;;;;;7.25;2.65;;;4.10;99.90;;;;;;5054712;28;20044;-73
2023/03/07 09:48:13;;;;;;;5.90;1.10;;;4.10;99.90;;;;;;5072856;28;20099;-73
2023/03/07 09:50:47;;;;;;;4.72;1.00;;;4.00;99.90;;;;;;5054839;28;20119;-74
2023/03/07 09:53:29;;;;;;;2.80;1.00;;;4.00;99.90;;;;;;5054435;28;20127;-73
2023/03/07 09:55:57;;;;;;;3.35;1.30;;;3.90;99.90;;;;;;5072708;28;20102;-74
2023/03/07 09:58:25;;;;;;;7.63;1.45;;;4.20;99.90;;;;;;5071338;28;20550;-73
2023/03/07 10:00:59;;;;;;;3.67;1.17;;;4.10;99.90;;;;;;5072418;28;20040;-74
2023/03/07 10:03:37;;;;;;;6.55;1.63;;;4.10;99.90;;;;;;5071947;28;20488;-73
2023/03/07 10:06:18;;;;;;;5.03;2.50;;;4.20;99.90;;;;;;5052652;28;20116;-73
2023/03/07 10:08:44;;;;;;;6.38;1.17;;;4.20;99.90;;;;;;5037068;28;20044;-72
2023/03/07 10:11:21;;;;;;;4.97;1.67;;;4.20;99.90;;;;;;5071903;28;20782;-73
2023/03/07 10:14:21;;;;;;;6.28;1.38;;;4.20;99.90;;;;;;5072164;28;20048;-73
2023/03/07 10:16:54;;;;;;;9.00;1.90;;;4.30;99.90;;;;;;5070303;28;20120;-73
2023/03/07 10:19:22;;;;;;;10.50;1.87;;;4.40;99.90;;;;;;5072300;28;20040;-73
2023/03/07 10:21:59;;;;;;;6.18;1.33;;;4.30;99.90;;;;;;5072029;28;20345;-73
2023/03/07 10:24:37;;;;;;;5.72;1.77;;;4.30;99.90;;;;;;5071993;28;20123;-73
2023/03/07 10:27:07;;;;;;;6.97;1.58;;;4.40;99.90;;;;;;5072077;28;20483;-73
2023/03/07 10:29:48;;;;;;;6.70;1.40;;;4.50;99.90;;;;;;5071990;28;20041;-73
2023/03/07 10:32:37;;;;;;;13.60;3.05;;;4.50;99.90;;;;;;5088039;22;20550;-71
2023/03/07 10:35:19;;;;;;;3.38;1.15;;;4.50;99.90;;;;;;5017163;28;20040;-71
2023/03/07 10:37:50;;;;;;;6.55;1.73;;;4.50;99.90;;;;;;5034122;28;20095;-72
2023/03/07 10:40:22;;;;;;;6.43;1.90;;;4.50;99.90;;;;;;5022406;28;20044;-71
2023/03/07 10:42:48;;;;;;;6.53;1.30;;;4.60;99.90;;;;;;5042352;28;20568;-71
2023/03/07 10:45:14;;;;;;;8.40;1.35;;;4.50;99.90;;;;;;5030406;28;20147;-72
2023/03/07 10:47:40;;;;;;;7.22;1.45;;;4.60;99.90;;;;;;5033643;28;20515;-72
2023/03/07 10:50:22;;;;;;;8.27;2.20;;;4.70;99.90;;;;;;5034175;28;20041;-72
2023/03/07 10:52:54;;;;;;;11.00;1.75;;;4.80;99.90;;;;;;5017533;28;20044;-72
2023/03/07 10:55:38;;;;;;;6.20;1.83;;;4.70;99.90;;;;;;5033782;28;20049;-73
2023/03/07 10:58:11;;;;;;;;;;;4.70;99.90;;;;;;5034214;28;20131;-72
2023/03/07 11:00:37;;;;;;;6.68;1.45;;;4.80;99.90;;;;;;5033749;28;20569;-72
2023/03/07 11:03:03;;;;;;;11.45;1.58;;;4.70;99.90;;;;;;5033214;28;20037;-72
2023/03/07 11:05:31;;;;;;;10.57;1.50;;;4.70;99.90;;;;;;5033494;28;20037;-71
2023/03/07 11:07:58;;;;;;;10.77;1.58;;;4.90;99.90;;;;;;5033501;28;20045;-72
2023/03/07 11:10:37;;;;;;;8.77;1.30;;;4.90;99.90;;;;;;5033793;28;20029;-71
2023/03/07 11:13:12;;;;;;;7.35;1.30;;;4.90;99.90;;;;;;5031236;28;20051;-72
2023/03/07 11:15:38;;;;;;;11.13;1.73;;;5.10;99.90;;;;;;5031021;28;20152;-71
2023/03/07 11:18:03;;;;;;;7.45;1.25;;;5.00;99.90;;;;;;5033595;28;20041;-73
2023/03/07 11:20:49;;;;;;;4.85;1.52;;;5.10;99.90;;;;;;5051400;28;20033;-72
2023/03/07 11:23:23;;;;;;;5.30;2.05;;;5.10;99.90;;;;;;5033130;28;20045;-72
2023/03/07 11:25:50;;;;;;;9.13;2.03;;;5.20;99.90;;;;;;5033359;28;20033;-72
2023/03/07 11:28:33;;;;;;;8.07;1.73;;;5.10;99.90;;;;;;5016911;28;20039;-72
2023/03/07 11:31:12;;;;;;;3.40;1.60;;;5.20;99.90;;;;;;5033507;28;20044;-72
2023/03/07 11:33:52;;;;;;;6.07;1.20;;;5.20;99.90;;;;;;5033253;28;20488;-72
2023/03/07 11:36:31;;;;;;;10.32;1.27;;;5.10;99.90;;;;;;5017118;28;20103;-74
2023/03/07 11:39:03;;;;;;;7.72;1.75;;;5.20;99.90;;;;;;5033229;28;20045;-72
2023/03/07 11:41:50;;;;;;;3.08;0.95;;;5.10;99.90;;;;;;5033134;28;20051;-72
2023/03/07 11:44:15;;;;;;;7.97;1.77;;;5.20;99.90;;;;;;5015750;28;20389;-72
2023/03/07 11:47:14;;;;;;;11.18;2.22;;;5.20;99.90;;;;;;5026285;28;20052;-72
2023/03/07 11:49:42;;;;;;;8.10;1.60;;;5.20;99.90;;;;;;5001670;28;20175;-72
2023/03/07 11:52:17;;;;;;;14.95;1.63;;;5.50;99.90;;;;;;5033539;28;20237;-71
2023/03/07 11:55:25;;;;;;;4.95;1.10;;;5.60;99.90;;;;;;5016670;28;20125;-71
2023/03/07 11:58:10;;;;;;;4.20;1.20;;;4.80;99.90;;;;;;5033313;28;20047;-72
2023/03/07 12:00:55;;;;;;;7.93;1.30;;;4.50;99.90;;;;;;5035967;28;20076;-72
2023/03/07 12:03:58;;;;;;;4.50;0.90;;;4.40;99.90;;;;;;5019871;28;20049;-71
2023/03/07 12:06:33;;;;;;;10.43;1.10;;;4.10;99.90;;;;;;5036988;28;20107;-71
2023/03/07 12:09:06;;;;;;;3.80;1.08;;;3.90;99.90;;;;;;5021222;28;20462;-72
2023/03/07 12:11:42;;;;;;;4.40;1.00;;;3.80;99.90;;;;;;5036638;28;20049;-71
2023/03/07 12:14:16;;;;;;;5.38;1.27;;;3.80;99.90;;;;;;5020017;28;20037;-71
2023/03/07 12:17:08;;;;;;;6.45;1.60;;;4.00;99.90;;;;;;5036666;28;20120;-72
2023/03/07 12:19:52;;;;;;;3.95;1.02;;;3.90;99.90;;;;;;5036558;28;20116;-71
2023/03/07 12:22:21;;;;;;;5.07;1.00;;;3.90;99.90;;;;;;5054137;28;20040;-71
2023/03/07 12:25:23;;;;;;;4.88;1.10;;;4.10;99.90;;;;;;5036050;28;20045;-71
2023/03/07 12:28:23;;;;;;;4.78;1.20;;;4.20;99.90;;;;;;5036422;28;20041;-71
2023/03/07 12:30:55;;;;;;;8.48;1.38;;;4.10;99.90;;;;;;5036362;28;20560;-72
2023/03/07 12:33:48;;;;;;;10.13;1.98;;;4.10;99.90;;;;;;5035862;28;20504;-71
2023/03/07 12:36:26;;;;;;;5.35;1.15;;;4.30;99.90;;;;;;5019148;28;20057;-71
2023/03/07 12:39:13;;;;;;;7.28;0.85;;;4.30;99.90;;;;;;5036446;28;20076;-72
2023/03/07 12:41:59;;;;;;;9.63;1.20;;;4.50;99.90;;;;;;5036043;28;20049;-71
2023/03/07 12:44:36;;;;;;;5.97;1.20;;;4.50;99.90;;;;;;5035368;28;20045;-72
2023/03/07 12:47:20;;;;;;;5.45;2.10;;;4.50;99.90;;;;;;5036488;28;20029;-71
2023/03/07 12:49:54;;;;;;;7.68;1.63;;;4.50;99.90;;;;;;5036198;28;20079;-72
2023/03/07 12:52:41;;;;;;;7.85;1.00;;;4.60;99.90;;;;;;5036275;28;20041;-72
2023/03/07 12:55:29;;;;;;;6.82;1.33;;;4.60;99.90;;;;;;5035726;28;20094;-72
2023/03/07 12:58:15;;;;;;;8.85;1.13;;;4.80;99.90;;;;;;5019476;28;20044;-72
2023/03/07 13:00:48;;;;;;;6.55;1.20;;;4.90;99.90;;;;;;5035183;28;20417;-72
2023/03/07 13:03:36;;;;;;;5.60;1.77;;;5.00;99.90;;;;;;5035709;28;20436;-72